Time;durP1;ratioP1;P1;durP2;ratioP2;P2;SDS_P1;SDS_P2;PMS_P1;PMS_P2;Temp;Humidity;BMP_temperature;BMP_pressure;BME280_temperature;BME280_humidity;BME280_pressure;Samples;Min_cycle;Max_cycle;Signal;HPM_P1;HPM_P2
2023/07/20 00:02:21;;;;;;;2.45;2.17;;;24.90;54.90;25.60;100589.00;;;;6271386;22;20149;-57
2023/07/20 00:04:46;;;;;;;2.20;2.05;;;24.90;54.90;25.50;100592.00;;;;6271388;22;20176;-55
2023/07/20 00:07:12;;;;;;;2.10;2.00;;;24.90;54.90;25.50;100597.00;;;;6270756;22;20196;-55
2023/07/20 00:09:38;;;;;;;2.30;2.10;;;24.90;55.10;25.50;100602.00;;;;6269161;22;20199;-55
2023/07/20 00:12:04;;;;;;;2.38;2.17;;;24.90;55.00;25.50;100599.00;;;;6270673;22;20180;-54
2023/07/20 00:14:30;;;;;;;2.38;2.17;;;24.80;54.90;25.50;100596.00;;;;6271464;22;20586;-56
2023/07/20 00:16:56;;;;;;;2.30;2.10;;;24.90;55.00;25.50;100596.00;;;;6270577;22;20624;-55
2023/07/20 00:19:26;;;;;;;2.35;2.15;;;24.80;54.90;25.50;100593.00;;;;6271136;22;20217;-54
2023/07/20 00:21:52;;;;;;;2.40;2.20;;;24.80;55.00;25.40;100589.00;;;;6271221;22;20369;-56
2023/07/20 00:24:18;;;;;;;2.60;2.00;;;24.80;55.70;25.50;100582.00;;;;6270925;22;20145;-54
2023/07/20 00:26:43;;;;;;;2.25;2.05;;;24.80;55.10;25.40;100597.00;;;;6270495;22;20248;-55
2023/07/20 00:29:09;;;;;;;2.30;2.10;;;24.80;55.10;25.40;100586.00;;;;6271150;22;20235;-55
2023/07/20 00:31:36;;;;;;;2.00;1.90;;;24.80;55.10;25.40;100594.00;;;;6270883;22;20169;-55
2023/07/20 00:34:03;;;;;;;2.47;2.10;;;24.80;55.10;25.40;100589.00;;;;6270941;22;20645;-55
2023/07/20 00:36:29;;;;;;;2.20;2.00;;;24.80;55.10;25.40;100590.00;;;;6270446;22;20199;-55
2023/07/20 00:38:54;;;;;;;2.28;2.08;;;24.80;55.10;25.40;100589.00;;;;6270667;22;20152;-55
2023/07/20 00:41:20;;;;;;;2.45;2.20;;;24.70;55.00;25.40;100592.00;;;;6270886;22;20172;-54
2023/07/20 00:43:46;;;;;;;2.30;2.10;;;24.70;55.00;25.40;100595.00;;;;6270843;22;20156;-55
2023/07/20 00:46:12;;;;;;;2.03;1.85;;;24.70;55.00;25.40;100595.00;;;;6270418;22;20157;-55
2023/07/20 00:48:37;;;;;;;2.20;2.00;;;24.70;54.90;25.30;100595.00;;;;6243760;22;20206;-54
2023/07/20 00:51:03;;;;;;;2.22;2.03;;;24.70;54.90;25.30;100582.00;;;;6270519;22;20169;-55
2023/07/20 00:53:29;;;;;;;2.30;2.10;;;24.70;55.00;25.30;100595.00;;;;6270850;22;20149;-54
2023/07/20 00:55:55;;;;;;;2.10;2.00;;;24.70;55.00;25.30;100579.00;;;;6268423;22;20668;-55
2023/07/20 00:58:20;;;;;;;2.17;2.05;;;24.70;55.00;25.30;100574.00;;;;6243289;22;20172;-55
2023/07/20 01:00:47;;;;;;;2.30;2.10;;;24.60;54.90;25.30;100579.00;;;;6243486;22;20553;-53
2023/07/20 01:03:13;;;;;;;2.30;2.10;;;24.70;55.00;25.30;100592.00;;;;6270538;22;20606;-54
2023/07/20 01:06:04;;;;;;;2.00;1.90;;;24.60;54.70;25.30;100596.00;;;;6270057;22;20149;-54
2023/07/20 01:08:43;;;;;;;2.40;2.20;;;24.60;54.80;25.20;100592.00;;;;6220539;22;20145;-55
2023/07/20 01:11:48;;;;;;;2.00;1.90;;;24.60;54.80;25.20;100600.00;;;;6245390;22;20175;-56
2023/07/20 01:14:14;;;;;;;2.20;2.00;;;24.60;54.80;25.20;100592.00;;;;6268200;22;20210;-55
2023/07/20 01:16:39;;;;;;;2.65;2.20;;;24.60;54.80;25.20;100604.00;;;;6242819;22;20180;-56
2023/07/20 01:19:06;;;;;;;2.10;2.00;;;24.50;54.90;25.20;100594.00;;;;6270567;22;20219;-54
2023/07/20 01:21:40;;;;;;;2.10;2.00;;;24.60;54.90;25.20;100591.00;;;;6270687;22;20181;-54
2023/07/20 01:25:09;;;;;;;2.10;2.00;;;24.60;54.80;25.20;100602.00;;;;6269483;22;20138;-56
2023/07/20 01:27:44;;;;;;;2.10;2.00;;;24.60;55.10;25.10;100597.00;;;;6227254;22;20176;-56
2023/07/20 01:30:43;;;;;;;2.40;2.20;;;24.50;55.00;25.10;100593.00;;;;6273410;22;20140;-56
2023/07/20 01:33:09;;;;;;;2.35;2.15;;;24.50;54.90;25.10;100588.00;;;;6246400;22;20144;-55
2023/07/20 01:35:35;;;;;;;2.30;2.10;;;24.50;55.00;25.10;100590.00;;;;6217926;22;20145;-55
2023/07/20 01:38:01;;;;;;;1.92;1.83;;;24.50;54.90;25.10;100588.00;;;;6243351;22;20164;-54
2023/07/20 01:40:26;;;;;;;2.08;1.98;;;24.50;55.00;25.10;100577.00;;;;6218184;22;20230;-55
2023/07/20 01:42:53;;;;;;;2.33;2.13;;;24.50;55.10;25.10;100576.00;;;;6244132;22;20227;-54
2023/07/20 01:45:19;;;;;;;2.10;1.90;;;24.50;55.00;25.00;100589.00;;;;6276840;22;20661;-55
2023/07/20 01:47:44;;;;;;;2.30;2.10;;;24.40;55.00;25.00;100586.00;;;;6270919;22;20168;-54
2023/07/20 01:50:10;;;;;;;2.30;2.10;;;24.40;55.00;25.00;100575.00;;;;6269855;22;20149;-55
2023/07/20 01:52:36;;;;;;;2.05;1.95;;;24.40;55.00;25.00;100596.00;;;;6270147;22;20203;-56
2023/07/20 01:55:02;;;;;;;2.38;2.17;;;24.40;54.90;25.00;100579.00;;;;6269774;22;20198;-56
2023/07/20 01:57:28;;;;;;;1.90;1.80;;;24.40;54.90;25.00;100588.00;;;;6268763;22;20195;-55
2023/07/20 01:59:53;;;;;;;2.22;1.88;;;24.40;54.80;25.00;100580.00;;;;6270139;22;20148;-59
2023/07/20 02:02:20;;;;;;;2.40;2.00;;;24.40;54.80;25.00;100586.00;;;;6270094;22;20149;-54
2023/07/20 02:04:46;;;;;;;2.30;2.10;;;24.40;54.80;25.00;100575.00;;;;6270431;22;20226;-57
2023/07/20 02:07:11;;;;;;;1.92;1.80;;;24.40;54.80;25.00;100581.00;;;;6268135;22;20173;-54
2023/07/20 02:09:37;;;;;;;2.15;2.00;;;24.40;55.40;25.00;100573.00;;;;6269407;22;20153;-54
2023/07/20 02:12:03;;;;;;;2.20;2.00;;;24.30;54.80;25.00;100572.00;;;;6269819;22;20664;-55
2023/07/20 02:14:29;;;;;;;2.00;1.90;;;24.30;54.60;25.00;100569.00;;;;6270267;22;20153;-56
2023/07/20 02:16:57;;;;;;;2.00;1.90;;;24.30;54.70;24.90;100567.00;;;;6269669;22;20195;-55
2023/07/20 02:19:25;;;;;;;2.30;2.10;;;24.30;54.70;24.90;100571.00;;;;6270196;22;20646;-55
2023/07/20 02:21:51;;;;;;;2.90;2.10;;;24.30;54.70;24.90;100559.00;;;;6272090;22;20149;-54
2023/07/20 02:24:17;;;;;;;2.20;2.00;;;24.30;54.80;24.90;100570.00;;;;6272074;22;20152;-54
2023/07/20 02:26:43;;;;;;;2.30;2.10;;;24.30;54.70;24.90;100572.00;;;;6271566;22;20169;-54
2023/07/20 02:29:11;;;;;;;2.05;1.95;;;24.30;54.60;24.90;100566.00;;;;6271825;22;20149;-55
2023/07/20 02:31:39;;;;;;;2.22;2.05;;;24.30;54.70;24.90;100572.00;;;;6271990;22;20507;-55
2023/07/20 02:34:05;;;;;;;2.13;1.92;;;24.30;54.80;24.90;100586.00;;;;6272052;22;20605;-55
2023/07/20 02:36:32;;;;;;;2.20;2.00;;;24.30;54.70;24.60;100572.00;;;;6271478;22;20161;-55
2023/07/20 02:38:58;;;;;;;2.20;2.10;;;24.20;54.60;24.90;100560.00;;;;6271715;22;20541;-54
2023/07/20 02:41:24;;;;;;;1.90;1.80;;;24.20;54.60;24.90;100580.00;;;;6271658;22;20160;-54
2023/07/20 02:43:50;;;;;;;2.10;1.90;;;24.20;54.60;24.80;100580.00;;;;6271841;22;20157;-55
2023/07/20 02:46:16;;;;;;;3.80;2.17;;;24.20;54.60;24.80;100582.00;;;;6271393;22;20169;-56
2023/07/20 02:48:41;;;;;;;2.15;2.00;;;24.20;54.70;24.60;100525.00;;;;6271851;22;20593;-55
2023/07/20 02:51:07;;;;;;;2.15;1.95;;;24.20;54.70;24.80;100577.00;;;;6271889;22;20171;-55
2023/07/20 02:53:33;;;;;;;2.20;2.00;;;24.20;54.70;24.80;100580.00;;;;6271736;22;20145;-55
2023/07/20 02:55:59;;;;;;;2.20;2.00;;;24.20;54.70;24.80;100586.00;;;;6269581;22;20177;-54
2023/07/20 02:58:25;;;;;;;2.13;1.93;;;24.20;54.70;24.80;100579.00;;;;6271604;22;20192;-55
2023/07/20 03:00:50;;;;;;;2.10;2.00;;;24.10;54.70;24.80;100583.00;;;;6271957;22;20156;-54
2023/07/20 03:03:16;;;;;;;2.30;2.10;;;24.20;54.70;24.80;100590.00;;;;6273280;22;20149;-55
2023/07/20 03:05:42;;;;;;;2.70;2.00;;;24.10;54.70;24.70;100581.00;;;;6273053;22;20215;-55
2023/07/20 03:08:08;;;;;;;1.90;1.80;;;24.10;54.70;24.80;100577.00;;;;6273200;22;20207;-55
2023/07/20 03:10:41;;;;;;;2.17;2.00;;;24.10;54.80;24.70;100573.00;;;;6273209;22;20609;-55
2023/07/20 03:13:07;;;;;;;2.15;2.00;;;24.10;54.70;24.70;100576.00;;;;6272430;22;20509;-55
2023/07/20 03:15:34;;;;;;;2.23;2.03;;;24.10;54.70;24.70;100577.00;;;;6273479;22;20142;-54
2023/07/20 03:17:59;;;;;;;2.10;2.00;;;24.10;54.70;24.70;100577.00;;;;6271799;22;20180;-54
2023/07/20 03:20:25;;;;;;;2.30;2.10;;;24.10;54.70;24.70;100581.00;;;;6272973;22;20484;-54
2023/07/20 03:22:51;;;;;;;1.90;1.80;;;24.10;54.80;24.70;100586.00;;;;6272988;22;20145;-55
2023/07/20 03:25:17;;;;;;;2.53;2.27;;;24.10;54.70;24.70;100582.00;;;;6272758;22;20152;-56
2023/07/20 03:27:43;;;;;;;3.23;2.23;;;24.10;54.80;24.70;100582.00;;;;6273402;22;20172;-55
2023/07/20 03:30:09;;;;;;;2.37;2.17;;;24.10;54.80;24.70;100574.00;;;;6273022;22;20145;-55
2023/07/20 03:32:35;;;;;;;2.23;2.00;;;24.00;54.70;24.60;100595.00;;;;6269771;22;20791;-55
2023/07/20 03:35:01;;;;;;;2.23;2.00;;;24.00;54.70;24.60;100594.00;;;;6278198;22;20141;-56
2023/07/20 03:37:27;;;;;;;2.30;2.10;;;24.00;54.70;24.60;100588.00;;;;6276193;22;20217;-53
2023/07/20 03:39:53;;;;;;;2.00;1.90;;;24.00;55.20;24.60;100513.00;;;;6272730;22;20145;-55
2023/07/20 03:42:18;;;;;;;2.13;1.93;;;24.00;54.90;24.60;100587.00;;;;6272722;22;20203;-55
2023/07/20 03:44:44;;;;;;;3.10;2.07;;;24.00;54.90;24.60;100595.00;;;;6272284;22;20211;-55
2023/07/20 03:47:10;;;;;;;2.20;2.00;;;24.00;54.80;24.60;100599.00;;;;6272191;22;20200;-55
2023/07/20 03:49:36;;;;;;;2.97;2.20;;;24.10;54.90;24.60;100603.00;;;;6275438;22;20520;-54
2023/07/20 03:52:03;;;;;;;2.50;2.07;;;24.00;54.80;24.60;100596.00;;;;6278413;22;20166;-55
2023/07/20 03:54:29;;;;;;;4.83;2.10;;;24.00;54.80;24.60;100597.00;;;;6272117;22;20564;-55
2023/07/20 03:56:54;;;;;;;2.50;2.30;;;24.00;54.80;24.60;100608.00;;;;6270088;22;20558;-55
2023/07/20 03:59:20;;;;;;;2.70;2.20;;;24.00;54.80;24.60;100610.00;;;;6272104;22;20183;-54
2023/07/20 04:01:46;;;;;;;2.03;1.83;;;24.00;54.80;24.60;100596.00;;;;6270258;22;20177;-54
2023/07/20 04:04:15;;;;;;;2.40;2.20;;;24.00;54.80;24.50;100599.00;;;;6271238;22;20207;-56
2023/07/20 04:06:44;;;;;;;3.27;2.00;;;24.00;54.80;24.60;100610.00;;;;6269305;22;20195;-56
2023/07/20 04:09:10;;;;;;;2.20;2.00;;;24.00;54.90;24.50;100604.00;;;;6272233;22;20157;-56
2023/07/20 04:11:36;;;;;;;2.10;2.00;;;24.00;54.80;24.50;100606.00;;;;6271851;22;20223;-56
2023/07/20 04:14:02;;;;;;;2.20;2.00;;;24.00;54.80;24.50;100608.00;;;;6269580;22;20145;-56
2023/07/20 04:16:28;;;;;;;2.23;2.03;;;23.90;54.80;24.50;100611.00;;;;6270983;22;20556;-56
2023/07/20 04:18:58;;;;;;;2.33;2.13;;;23.90;54.80;24.50;100622.00;;;;6270189;22;20151;-55
2023/07/20 04:21:27;;;;;;;2.10;1.90;;;23.90;54.90;24.50;100614.00;;;;6270571;22;20536;-54
2023/07/20 04:23:52;;;;;;;2.30;2.10;;;24.00;55.00;24.50;100620.00;;;;6269335;22;20638;-57
2023/07/20 04:26:18;;;;;;;2.77;2.17;;;23.90;55.20;24.50;100628.00;;;;6269005;22;20149;-56
2023/07/20 04:28:44;;;;;;;2.15;1.95;;;23.90;55.20;24.50;100622.00;;;;6271444;22;20152;-56
2023/07/20 04:31:12;;;;;;;3.63;2.20;;;23.90;55.20;24.50;100597.00;;;;6270943;22;20171;-56
2023/07/20 04:33:39;;;;;;;4.97;2.93;;;23.90;55.30;24.50;100625.00;;;;6269423;22;20161;-55
2023/07/20 04:36:04;;;;;;;4.90;2.47;;;23.90;55.30;24.50;100631.00;;;;6270477;22;20157;-55
2023/07/20 04:38:30;;;;;;;3.43;2.53;;;23.90;55.30;24.50;100625.00;;;;6271366;22;20177;-55
2023/07/20 04:40:56;;;;;;;5.67;2.43;;;23.90;55.30;24.50;100631.00;;;;6271640;22;20236;-56
2023/07/20 04:43:22;;;;;;;5.53;2.30;;;23.90;55.30;24.50;100626.00;;;;6270958;22;20156;-56
2023/07/20 04:45:47;;;;;;;3.00;2.23;;;23.90;55.60;24.50;100626.00;;;;6270646;22;20505;-55
2023/07/20 04:48:15;;;;;;;4.10;2.25;;;23.90;55.60;24.40;100626.00;;;;6270732;22;20172;-54
2023/07/20 04:50:41;;;;;;;4.27;2.30;;;23.90;55.60;24.40;100629.00;;;;6271509;22;20226;-54
2023/07/20 04:53:08;;;;;;;5.47;2.40;;;23.80;55.50;24.40;100630.00;;;;6271627;22;20146;-54
2023/07/20 04:55:33;;;;;;;5.23;2.30;;;23.80;55.50;24.30;100575.00;;;;6270761;22;20148;-54
2023/07/20 04:58:01;;;;;;;2.60;2.13;;;23.80;55.50;24.40;100625.00;;;;6269903;22;20168;-55
2023/07/20 05:00:26;;;;;;;4.03;2.33;;;23.80;55.50;24.40;100627.00;;;;6271488;22;20481;-53
2023/07/20 05:02:52;;;;;;;3.53;2.30;;;23.80;55.40;24.40;100627.00;;;;6271020;22;20141;-54
2023/07/20 05:05:18;;;;;;;3.17;2.20;;;23.80;55.50;24.40;100631.00;;;;6270935;22;20152;-55
2023/07/20 05:07:44;;;;;;;4.13;3.37;;;23.80;55.50;24.40;100623.00;;;;6271568;22;20164;-48
2023/07/20 05:10:10;;;;;;;4.03;3.40;;;23.80;56.30;24.40;100630.00;;;;6244604;22;20195;-49
2023/07/20 05:12:36;;;;;;;4.30;3.40;;;23.80;56.30;24.30;100633.00;;;;6271458;22;20251;-47
2023/07/20 05:15:03;;;;;;;5.97;3.77;;;23.80;56.20;24.30;100633.00;;;;6271019;22;20152;-49
2023/07/20 05:17:29;;;;;;;4.45;4.05;;;23.80;56.60;24.20;100636.00;;;;6270875;22;20794;-49
2023/07/20 05:19:55;;;;;;;4.50;4.00;;;23.80;56.70;24.20;100626.00;;;;6272031;22;20141;-48
2023/07/20 05:22:20;;;;;;;5.47;4.23;;;23.80;57.10;24.10;100641.00;;;;6271591;22;20179;-49
2023/07/20 05:24:46;;;;;;;4.33;3.93;;;23.60;57.50;24.10;100637.00;;;;6271253;22;20153;-49
2023/07/20 05:27:12;;;;;;;5.53;4.27;;;23.60;57.50;24.00;100636.00;;;;6272086;22;20177;-47
2023/07/20 05:29:38;;;;;;;4.87;4.37;;;23.60;57.50;24.00;100637.00;;;;6219334;22;20157;-48
2023/07/20 05:32:06;;;;;;;5.37;4.70;;;23.60;57.60;24.00;100638.00;;;;6271143;22;20169;-47
2023/07/20 05:34:32;;;;;;;7.37;4.87;;;23.50;57.90;23.90;100623.00;;;;6271382;22;20145;-48
2023/07/20 05:36:57;;;;;;;6.43;4.47;;;23.50;58.00;23.90;100635.00;;;;6271229;22;20255;-48
2023/07/20 05:39:23;;;;;;;5.53;4.80;;;23.50;57.90;23.90;100633.00;;;;6281250;22;20141;-49
2023/07/20 05:41:49;;;;;;;6.73;5.00;;;23.50;58.00;23.80;100627.00;;;;6279796;22;20145;-49
2023/07/20 05:44:15;;;;;;;4.87;4.37;;;23.50;58.10;23.80;100634.00;;;;6271670;22;20156;-50
2023/07/20 05:46:40;;;;;;;5.73;4.80;;;23.40;57.90;23.80;100631.00;;;;6271212;22;20176;-49
2023/07/20 05:49:06;;;;;;;5.40;4.87;;;23.40;58.10;23.80;100642.00;;;;6272039;22;20145;-49
2023/07/20 05:51:32;;;;;;;6.90;5.37;;;23.40;58.30;23.80;100639.00;;;;6271955;22;20169;-49
2023/07/20 05:53:57;;;;;;;5.33;4.83;;;23.40;58.30;23.70;100652.00;;;;6280367;22;20165;-49
2023/07/20 05:56:23;;;;;;;7.77;5.40;;;23.40;58.60;23.50;100636.00;;;;6279472;22;20480;-49
2023/07/20 05:58:49;;;;;;;7.63;5.40;;;23.30;58.60;23.70;100641.00;;;;6274146;22;20148;-46
2023/07/20 06:01:15;;;;;;;6.00;5.40;;;23.30;58.70;23.70;100640.00;;;;6274432;22;20226;-49
2023/07/20 06:03:41;;;;;;;5.80;5.20;;;23.20;58.70;23.60;100643.00;;;;6273301;22;20601;-47
2023/07/20 06:06:09;;;;;;;5.70;5.20;;;23.20;58.80;23.60;100645.00;;;;6273762;22;20149;-47
2023/07/20 06:08:34;;;;;;;5.80;5.20;;;23.20;58.60;23.60;100650.00;;;;6272943;22;20151;-49
2023/07/20 06:11:00;;;;;;;5.10;4.60;;;23.20;58.70;23.60;100649.00;;;;6273263;22;20169;-48
2023/07/20 06:13:26;;;;;;;6.10;5.20;;;23.20;58.60;23.60;100642.00;;;;6273024;22;20605;-49
2023/07/20 06:15:52;;;;;;;5.40;4.90;;;23.20;58.60;23.60;100653.00;;;;6272866;22;20141;-49
2023/07/20 06:18:18;;;;;;;6.10;5.50;;;23.20;58.60;23.60;100651.00;;;;6273387;22;20161;-48
2023/07/20 06:20:52;;;;;;;5.33;4.83;;;23.20;58.70;23.50;100661.00;;;;6273621;22;20235;-48
2023/07/20 06:23:20;;;;;;;5.93;5.27;;;23.20;58.80;23.50;100659.00;;;;6273074;22;20176;-48
2023/07/20 06:25:46;;;;;;;5.53;5.03;;;23.10;58.90;23.50;100652.00;;;;6273069;22;20149;-47
2023/07/20 06:28:12;;;;;;;6.30;5.70;;;23.20;58.80;23.50;100653.00;;;;6273264;22;20176;-47
2023/07/20 06:30:38;;;;;;;6.40;5.80;;;23.20;59.00;23.50;100651.00;;;;6273230;22;20179;-49
2023/07/20 06:33:04;;;;;;;6.77;5.77;;;23.10;59.10;23.50;100657.00;;;;6273127;22;20146;-49
2023/07/20 06:35:29;;;;;;;6.30;5.70;;;23.10;59.20;23.50;100654.00;;;;6272388;22;20231;-47
2023/07/20 06:37:55;;;;;;;5.57;5.07;;;23.10;59.20;23.40;100660.00;;;;6273151;22;20238;-47
2023/07/20 06:40:21;;;;;;;6.07;5.17;;;23.10;58.90;23.20;100657.00;;;;6273042;22;20149;-47
2023/07/20 06:42:47;;;;;;;6.60;5.93;;;23.10;58.90;23.40;100661.00;;;;6273026;22;20141;-48
2023/07/20 06:45:12;;;;;;;6.73;6.03;;;23.10;59.00;23.40;100656.00;;;;6272149;22;20216;-48
2023/07/20 06:47:42;;;;;;;6.20;5.60;;;23.00;59.20;23.40;100658.00;;;;6273058;22;20235;-48
2023/07/20 06:50:09;;;;;;;7.20;6.50;;;23.00;59.20;23.40;100653.00;;;;6271908;22;20152;-48
2023/07/20 06:52:35;;;;;;;7.20;6.50;;;23.00;59.30;23.40;100655.00;;;;6271708;22;20173;-48
2023/07/20 06:55:00;;;;;;;6.90;6.20;;;23.00;59.40;23.40;100661.00;;;;6271373;22;20155;-48
2023/07/20 06:57:26;;;;;;;6.17;5.27;;;23.00;59.20;23.40;100661.00;;;;6272761;22;20219;-48
2023/07/20 06:59:53;;;;;;;6.67;5.60;;;23.00;59.20;23.40;100655.00;;;;6268973;22;20141;-47
2023/07/20 07:02:19;;;;;;;6.60;6.00;;;23.00;59.20;23.40;100665.00;;;;6276541;22;20168;-47
2023/07/20 07:04:45;;;;;;;7.50;6.73;;;23.00;59.10;23.40;100655.00;;;;6274447;22;20173;-48
2023/07/20 07:07:11;;;;;;;5.40;4.90;;;23.00;59.20;23.40;100664.00;;;;6271023;22;20256;-47
2023/07/20 07:09:36;;;;;;;6.37;5.80;;;23.00;59.00;23.40;100666.00;;;;6272837;22;20482;-48
2023/07/20 07:12:02;;;;;;;6.57;5.57;;;23.00;59.20;23.40;100660.00;;;;6272218;22;20169;-48
2023/07/20 07:14:28;;;;;;;6.37;5.77;;;23.00;59.20;23.40;100670.00;;;;6271002;22;20148;-49
2023/07/20 07:16:54;;;;;;;6.40;5.80;;;23.00;59.40;23.40;100675.00;;;;6271889;22;20177;-48
2023/07/20 07:19:20;;;;;;;5.60;5.10;;;22.90;59.30;23.30;100664.00;;;;6272557;22;20145;-49
2023/07/20 07:21:46;;;;;;;5.60;5.10;;;22.90;59.30;23.30;100670.00;;;;6273109;22;20489;-47
2023/07/20 07:24:11;;;;;;;6.40;5.80;;;22.90;59.20;23.30;100670.00;;;;6272829;22;20150;-48
2023/07/20 07:26:37;;;;;;;6.77;5.67;;;22.90;59.30;23.30;100668.00;;;;6271724;22;20164;-48
2023/07/20 07:29:03;;;;;;;8.10;6.40;;;22.80;59.30;23.30;100673.00;;;;6271627;22;20156;-48
2023/07/20 07:31:30;;;;;;;6.20;5.50;;;22.80;59.50;23.30;100673.00;;;;6272060;22;20169;-48
2023/07/20 07:33:56;;;;;;;7.33;5.50;;;22.80;59.50;23.20;100674.00;;;;6272476;22;20149;-47
2023/07/20 07:36:24;;;;;;;5.47;5.03;;;22.80;59.50;23.20;100681.00;;;;6272110;22;20152;-48
2023/07/20 07:38:50;;;;;;;6.17;5.63;;;22.80;59.60;23.20;100686.00;;;;6277687;22;20145;-49
2023/07/20 07:41:16;;;;;;;6.83;6.10;;;22.80;59.60;23.20;100682.00;;;;6284084;22;20157;-48
2023/07/20 07:43:42;;;;;;;6.00;5.50;;;22.80;59.60;23.20;100691.00;;;;6272530;22;20160;-48
2023/07/20 07:46:08;;;;;;;6.10;5.60;;;22.80;59.60;23.20;100695.00;;;;6271074;22;20471;-48
2023/07/20 07:48:33;;;;;;;5.43;4.93;;;22.70;59.90;23.20;100690.00;;;;6272984;22;20165;-48
2023/07/20 07:50:59;;;;;;;6.03;5.43;;;22.80;59.80;23.20;100677.00;;;;6272844;22;20169;-48
2023/07/20 07:53:25;;;;;;;5.57;5.07;;;22.80;59.90;23.10;100681.00;;;;6278133;22;20141;-49
2023/07/20 07:55:52;;;;;;;5.37;4.87;;;22.80;59.80;23.10;100677.00;;;;6280303;22;20473;-48
2023/07/20 07:58:17;;;;;;;5.23;4.73;;;22.70;59.60;23.10;100688.00;;;;6272971;22;20169;-48
2023/07/20 08:00:44;;;;;;;4.93;4.43;;;22.80;59.50;23.20;100689.00;;;;6272818;22;20206;-48
2023/07/20 08:03:10;;;;;;;4.40;4.00;;;22.70;59.30;23.20;100695.00;;;;6272511;22;20618;-48
2023/07/20 08:05:35;;;;;;;4.00;3.60;;;22.70;59.40;23.20;100701.00;;;;6270236;22;20153;-48
2023/07/20 08:08:03;;;;;;;3.73;3.13;;;22.70;59.20;23.20;100699.00;;;;6270946;22;20176;-48
2023/07/20 08:10:29;;;;;;;3.97;3.40;;;22.70;58.70;23.20;100681.00;;;;6272745;22;20160;-48
2023/07/20 08:12:55;;;;;;;3.33;3.03;;;22.70;58.40;23.20;100696.00;;;;6270970;22;20613;-48
2023/07/20 08:15:21;;;;;;;3.00;2.80;;;22.70;58.20;23.20;100701.00;;;;6271510;22;20149;-48
2023/07/20 08:17:48;;;;;;;3.13;2.77;;;22.70;58.40;23.20;100705.00;;;;6271995;22;20184;-48
2023/07/20 08:20:14;;;;;;;3.03;2.63;;;22.60;58.30;23.20;100700.00;;;;6270857;22;20145;-47
2023/07/20 08:22:40;;;;;;;3.43;2.87;;;22.60;58.20;23.20;100698.00;;;;6272503;22;20157;-50
2023/07/20 08:25:06;;;;;;;2.80;2.60;;;22.60;58.10;23.20;100714.00;;;;6269249;22;20157;-49
2023/07/20 08:27:33;;;;;;;2.80;2.60;;;22.60;58.10;23.20;100699.00;;;;6271431;22;20239;-49
2023/07/20 08:29:59;;;;;;;2.70;2.50;;;22.60;58.10;23.20;100699.00;;;;6270931;22;20153;-49
2023/07/20 08:32:25;;;;;;;3.40;3.00;;;22.70;58.10;23.20;100706.00;;;;6270292;22;20179;-48
2023/07/20 08:34:51;;;;;;;3.33;3.10;;;22.60;58.00;23.20;100711.00;;;;6271602;22;20157;-47
2023/07/20 08:37:17;;;;;;;3.17;2.90;;;22.70;58.00;23.20;100704.00;;;;6270687;22;21053;-48
2023/07/20 08:39:43;;;;;;;3.37;2.90;;;22.70;58.00;23.20;100696.00;;;;6272075;22;20145;-47
2023/07/20 08:42:09;;;;;;;3.07;2.77;;;22.70;57.80;23.20;100707.00;;;;6268914;22;20160;-47
2023/07/20 08:44:36;;;;;;;3.23;2.73;;;22.70;57.60;23.10;100714.00;;;;6270268;22;20373;-49
2023/07/20 08:47:03;;;;;;;2.53;2.33;;;22.70;57.50;23.10;100711.00;;;;6269717;22;20188;-49
2023/07/20 08:49:31;;;;;;;2.63;2.43;;;22.60;57.30;23.10;100677.00;;;;6270972;22;20230;-49
2023/07/20 08:51:56;;;;;;;2.50;2.30;;;22.70;57.30;23.20;100709.00;;;;6246167;22;20176;-49
2023/07/20 08:54:22;;;;;;;2.50;2.30;;;22.60;57.30;23.20;100718.00;;;;6270932;22;20198;-49
2023/07/20 08:56:48;;;;;;;2.57;2.20;;;22.60;57.30;23.10;100712.00;;;;6265423;22;20172;-55
2023/07/20 08:59:16;;;;;;;2.20;2.00;;;22.50;57.30;23.20;100725.00;;;;6269914;22;20148;-55
2023/07/20 09:01:42;;;;;;;2.30;2.10;;;22.60;57.30;23.20;100712.00;;;;6269869;22;20222;-55
2023/07/20 09:04:08;;;;;;;3.13;2.33;;;22.50;57.60;23.20;100703.00;;;;6218970;22;20188;-55
2023/07/20 09:06:35;;;;;;;3.00;2.37;;;22.60;58.00;23.20;100713.00;;;;6268657;22;20168;-55
2023/07/20 09:09:00;;;;;;;2.50;2.30;;;22.50;58.00;23.10;100706.00;;;;6270221;22;20179;-54
2023/07/20 09:11:26;;;;;;;3.30;2.23;;;22.60;58.10;23.20;100700.00;;;;6271307;22;20511;-55
2023/07/20 09:14:09;;;;;;;4.33;2.30;;;22.60;58.10;23.20;100698.00;;;;6271716;22;20225;-54
2023/07/20 09:16:51;;;;;;;2.77;1.90;;;22.60;57.80;23.30;100705.00;;;;6270095;22;20201;-55
2023/07/20 09:19:17;;;;;;;3.97;2.47;;;22.60;57.70;23.30;100698.00;;;;6271505;22;20149;-55
2023/07/20 09:21:47;;;;;;;4.57;2.10;;;22.70;58.20;23.30;100700.00;;;;6271097;22;20222;-55
2023/07/20 09:24:13;;;;;;;2.30;2.10;;;22.70;58.00;23.30;100708.00;;;;6272165;22;20145;-56
2023/07/20 09:26:45;;;;;;;3.20;2.30;;;22.70;58.00;23.40;100708.00;;;;6271193;22;20226;-55
2023/07/20 09:29:11;;;;;;;4.47;2.10;;;22.70;58.20;23.40;100698.00;;;;6272476;22;20149;-56
2023/07/20 09:31:37;;;;;;;3.80;2.00;;;22.70;58.20;23.40;100645.00;;;;6270542;22;20179;-55
2023/07/20 09:34:03;;;;;;;2.37;2.00;;;22.70;58.20;23.40;100704.00;;;;6273174;22;20255;-56
2023/07/20 09:36:29;;;;;;;4.03;2.03;;;22.70;58.20;23.40;100699.00;;;;6245686;22;20173;-55
2023/07/20 09:38:55;;;;;;;2.37;2.10;;;22.70;58.20;23.40;100695.00;;;;6272751;22;20586;-54
2023/07/20 09:41:21;;;;;;;2.30;1.93;;;22.70;58.10;23.40;100705.00;;;;6278999;22;20149;-56
2023/07/20 09:43:47;;;;;;;3.70;2.20;;;22.70;57.50;23.40;100688.00;;;;6273710;22;20660;-53
2023/07/20 09:46:13;;;;;;;2.40;2.20;;;22.70;57.20;23.30;100679.00;;;;6244665;22;20180;-55
2023/07/20 09:48:39;;;;;;;2.10;2.00;;;22.60;56.90;23.30;100695.00;;;;6274275;22;20152;-55
2023/07/20 09:51:06;;;;;;;2.10;2.00;;;22.70;56.90;23.40;100681.00;;;;6274362;22;20176;-55
2023/07/20 09:53:32;;;;;;;2.50;2.00;;;22.70;56.80;23.40;100698.00;;;;6223069;22;20220;-56
2023/07/20 09:55:58;;;;;;;2.00;1.90;;;22.70;56.80;23.40;100685.00;;;;6280572;22;20156;-56
2023/07/20 09:58:24;;;;;;;2.20;2.00;;;22.70;56.80;23.40;100687.00;;;;6248073;22;20177;-56
2023/07/20 10:00:51;;;;;;;2.00;1.90;;;22.70;56.80;23.50;100700.00;;;;6222035;22;20149;-54
2023/07/20 10:03:22;;;;;;;2.10;2.00;;;22.80;56.90;23.50;100691.00;;;;6274257;22;20161;-54
2023/07/20 10:05:54;;;;;;;2.27;2.07;;;22.80;56.90;23.50;100688.00;;;;6273672;22;20486;-54
2023/07/20 10:08:22;;;;;;;1.97;1.87;;;22.80;56.90;23.50;100689.00;;;;6272435;22;20176;-54
2023/07/20 10:10:47;;;;;;;2.10;2.00;;;22.80;56.90;23.50;100689.00;;;;6272559;22;20517;-54
2023/07/20 10:13:22;;;;;;;2.10;2.00;;;22.80;56.60;23.50;100693.00;;;;6272437;22;20146;-54
2023/07/20 10:15:50;;;;;;;2.00;1.90;;;22.80;56.60;23.50;100687.00;;;;6272108;22;20148;-59
2023/07/20 10:18:31;;;;;;;2.20;1.90;;;22.80;56.60;23.60;100702.00;;;;6273826;22;20196;-55
2023/07/20 10:20:57;;;;;;;2.37;2.00;;;22.80;56.60;23.60;100696.00;;;;6249575;22;20771;-55
2023/07/20 10:23:23;;;;;;;1.90;1.80;;;22.80;56.70;23.60;100695.00;;;;6273060;22;20267;-54
2023/07/20 10:25:50;;;;;;;2.40;2.20;;;22.80;56.70;23.60;100689.00;;;;6271953;22;20271;-54
2023/07/20 10:28:16;;;;;;;2.20;2.00;;;22.80;56.60;23.60;100697.00;;;;6246915;22;20176;-54
2023/07/20 10:30:41;;;;;;;2.10;1.90;;;22.80;56.60;23.60;100682.00;;;;6272623;22;20153;-54
2023/07/20 10:33:07;;;;;;;2.10;2.00;;;22.80;56.70;23.70;100677.00;;;;6246896;22;20497;-54
2023/07/20 10:36:03;;;;;;;2.47;2.27;;;22.80;56.90;23.70;100673.00;;;;6271767;22;20157;-54
2023/07/20 10:38:47;;;;;;;2.10;2.00;;;22.80;56.60;23.70;100674.00;;;;6272788;22;20223;-56
2023/07/20 10:41:27;;;;;;;2.30;2.10;;;22.80;56.60;23.70;100680.00;;;;6272984;22;20156;-54
2023/07/20 10:43:57;;;;;;;2.30;2.10;;;22.80;56.00;23.70;100671.00;;;;6273431;22;20429;-52
2023/07/20 10:46:38;;;;;;;2.20;2.00;;;22.80;55.70;23.70;100674.00;;;;6244687;22;20208;-54
2023/07/20 10:49:09;;;;;;;1.90;1.80;;;22.80;55.10;23.70;100665.00;;;;6271348;22;20244;-54